Shoshone, California Weather observations

Data are for observation ending at time listed.
 Day   Time    Ave.   Ave.  Ave.  Vector   Max.   Stn.    Total    Solar   Ave.  
  of    of     Air    Rel.  Wind   Wind    Wind   Baro.  Precip.   Rad.    Soil  
Year   Day     Temp.  Hum.  Speed  Dir.    Gust   Pres.                    Temp. 
2015   (PST)    F      %     mph   deg.    mph     mb.     in.     W/m2     F   
------------------------------------------------------------------------------
  90    9:00   73.3    19    3.0   235     11.3    966     0.00     479    99999.0
  90   10:00   81.2    13    7.6   163     18.8    966     0.00     734    99999.0
  90   11:00   83.9    12    8.8   169     19.7    966     0.00     886    99999.0
  90   12:00   87.1    11    5.4   162     19.5    964     0.00     962    99999.0
  90   13:00   88.5    10    6.8   169     18.3    963     0.00     737    99999.0
  90   14:00   90.2     8    9.9   176     22.3    962     0.00     828    99999.0
  90   15:00   91.0     8   12.2   181     26.7    961     0.00     745    99999.0
  90   16:00   90.0     9   15.6   186     30.2    960     0.00     539    99999.0
  90   17:00   88.5     9   15.9   187     27.9    960     0.00     310    108.1
  90   18:00   86.2     9   13.5   192     24.8    960     0.00      92    100.3
  90   19:00   83.3    10   11.0   193     22.5    959     0.00       2    98.8
  90   20:00   79.4    12    4.3   152     14.0    960     0.00       0    101.1
  90   21:00   76.4    13    6.0   181     15.7    961     0.00       0    106.1
  90   22:00   73.1    14    2.3   161      9.6    962     0.00       0    111.3
  90   23:00   70.9    17    2.8   158     12.8    962     0.00       0    116.5
  91    0:00   68.9    20    3.3   158     13.1    963     0.00       0    99999.0
  91    1:00   67.2    22    1.9   157      8.8    963     0.00       0    99999.0
  91    2:00   61.4    27    1.9   306      5.0    964     0.00       0    99999.0
  91    3:00   56.0    32    1.7   317      5.5    964     0.00       0    99999.0
  91    4:00   54.8    32    1.4    34      6.2    965     0.00       1    99999.0
  91    5:00   51.5    37    1.2   342      7.5    966     0.00       1    99999.0
  91    6:00   61.1    21    6.6   317     15.8    966     0.00       9    99999.0
  91    7:00   63.4    19    8.1   305     18.0    967     0.00     140    99999.0
  91    8:00   66.6    16   12.0   327     22.9    967     0.00     368    99999.0

Return to Shoshone, California graphs page.


Western Regional Climate Center,wrcc@dri.edu